createdAt,value
2019-04-21T00:03:23.481Z,1009.48
2019-04-21T00:09:39.869Z,1009.41
2019-04-21T00:15:25.572Z,1009.36
2019-04-21T00:21:25.534Z,1009.39
2019-04-21T00:27:28.115Z,1009.42
2019-04-21T00:33:22.554Z,1009.38
2019-04-21T00:39:43.878Z,1009.27
2019-04-21T00:45:31.599Z,1009.28
2019-04-21T00:51:36.048Z,1009.20
2019-04-21T00:57:42.721Z,1009.26
2019-04-21T01:03:40.112Z,1009.24
2019-04-21T01:09:34.348Z,1009.19
2019-04-21T01:15:31.062Z,1009.09
2019-04-21T01:21:15.525Z,1009.06
2019-04-21T01:27:27.517Z,1009.07
2019-04-21T01:33:41.187Z,1008.98
2019-04-21T01:39:42.858Z,1009.01
2019-04-21T01:45:35.615Z,1008.87
2019-04-21T01:51:29.594Z,1008.82
2019-04-21T01:57:34.666Z,1008.82
2019-04-21T02:09:35.745Z,1008.69
2019-04-21T02:21:30.569Z,1008.72
2019-04-21T02:27:36.283Z,1008.70
2019-04-21T02:39:49.570Z,1008.44
2019-04-21T02:57:51.981Z,1008.25
2019-04-21T03:03:41.813Z,1008.24
2019-04-21T03:15:47.188Z,1008.25
2019-04-21T03:21:48.893Z,1008.17
2019-04-21T03:39:56.798Z,1007.99
2019-04-21T03:45:46.299Z,1007.92
2019-04-21T03:51:43.924Z,1007.97
2019-04-21T03:57:49.008Z,1007.97
2019-04-21T04:15:45.349Z,1007.99
2019-04-21T04:21:49.365Z,1008.01
2019-04-21T04:39:48.860Z,1008.00
2019-04-21T04:45:48.357Z,1007.97
2019-04-21T04:51:58.560Z,1008.00
2019-04-21T04:57:55.371Z,1008.02
2019-04-21T05:03:49.298Z,1008.02
2019-04-21T05:09:50.455Z,1008.04
2019-04-21T05:15:37.050Z,1008.04
2019-04-21T05:21:38.747Z,1008.00
2019-04-21T05:27:25.452Z,1007.95
2019-04-21T05:33:39.825Z,1007.95
2019-04-21T05:39:36.105Z,1007.94
2019-04-21T06:03:36.861Z,1007.86
2019-04-21T06:09:48.938Z,1007.90
2019-04-21T06:15:48.424Z,1007.82
2019-04-21T06:21:27.476Z,1007.70
2019-04-21T06:27:42.416Z,1007.77
2019-04-21T06:33:43.457Z,1007.77
2019-04-21T06:45:34.959Z,1007.69
2019-04-21T06:57:35.475Z,1007.71
2019-04-21T07:03:45.556Z,1007.73
2019-04-21T07:09:31.913Z,1007.74
2019-04-21T07:15:37.010Z,1007.74
2019-04-21T07:21:43.045Z,1007.72
2019-04-21T07:27:41.263Z,1007.73
2019-04-21T07:33:53.957Z,1007.64
2019-04-21T07:39:35.807Z,1007.64
2019-04-21T07:45:33.424Z,1007.63
2019-04-21T07:51:37.786Z,1007.60
2019-04-21T07:57:33.268Z,1007.50
2019-04-21T08:03:35.407Z,1007.52
2019-04-21T08:09:31.939Z,1007.45
2019-04-21T08:15:38.340Z,1007.37
2019-04-21T08:27:43.710Z,1007.34
2019-04-21T08:33:42.891Z,1007.21
2019-04-21T08:39:39.503Z,1007.26
2019-04-21T08:45:40.448Z,1007.15
2019-04-21T08:51:43.722Z,1007.07
2019-04-21T08:57:48.829Z,1006.96
2019-04-21T09:03:37.370Z,1007.04
2019-04-21T09:09:38.197Z,1006.99
2019-04-21T09:15:32.507Z,1006.90
2019-04-21T09:21:34.031Z,1006.82
2019-04-21T09:27:30.766Z,1006.76
2019-04-21T09:33:16.058Z,1006.63
2019-04-21T09:39:20.387Z,1006.57
2019-04-21T09:45:17.541Z,1006.49
2019-04-21T09:51:15.741Z,1006.50
2019-04-21T09:57:26.157Z,1006.40
2019-04-21T10:03:17.540Z,1006.23
2019-04-21T10:09:18.027Z,1006.20
2019-04-21T10:15:16.519Z,1005.97
2019-04-21T10:21:15.756Z,1005.94
2019-04-21T10:27:17.030Z,1005.92
2019-04-21T10:33:16.659Z,1005.76
2019-04-21T10:39:15.926Z,1005.62
2019-04-21T10:45:16.921Z,1005.46
2019-04-21T10:51:17.006Z,1005.44
2019-04-21T10:57:16.740Z,1005.31
2019-04-21T11:03:17.135Z,1005.22
2019-04-21T11:09:15.993Z,1005.13
2019-04-21T11:15:16.962Z,1005.10
2019-04-21T11:21:16.691Z,1005.14
2019-04-21T11:27:16.994Z,1005.02
2019-04-21T11:33:17.142Z,1004.82
2019-04-21T11:39:25.649Z,1004.78
2019-04-21T11:45:16.540Z,1004.72
2019-04-21T11:51:23.001Z,1004.69
2019-04-21T11:57:24.024Z,1004.60
2019-04-21T12:03:17.057Z,1004.59
2019-04-21T12:09:16.903Z,1004.53
2019-04-21T12:15:16.717Z,1004.42
2019-04-21T12:21:15.966Z,1004.45
2019-04-21T12:27:16.176Z,1004.36
2019-04-21T12:33:16.235Z,1004.32
2019-04-21T12:39:16.889Z,1004.18
2019-04-21T12:45:17.301Z,1003.97
2019-04-21T12:51:17.545Z,1004.01
2019-04-21T12:57:17.155Z,1003.78
2019-04-21T13:03:17.453Z,1003.80
2019-04-21T13:09:18.702Z,1003.63
2019-04-21T13:15:21.930Z,1003.63
2019-04-21T13:21:20.136Z,1003.41
2019-04-21T13:28:06.971Z,1003.29
2019-04-21T13:33:21.067Z,1003.20
2019-04-21T13:39:45.827Z,1003.16
2019-04-21T13:45:21.912Z,1003.02
2019-04-21T13:51:19.503Z,1003.01
2019-04-21T13:57:22.913Z,1002.95
2019-04-21T14:03:16.785Z,1002.85
2019-04-21T14:09:16.024Z,1002.73
2019-04-21T14:15:16.006Z,1002.61
2019-04-21T14:21:16.096Z,1002.42
2019-04-21T14:27:16.353Z,1002.50
2019-04-21T14:33:16.213Z,1002.48
2019-04-21T14:39:16.670Z,1002.41
2019-04-21T14:45:16.827Z,1002.25
2019-04-21T14:51:17.038Z,1002.26
2019-04-21T14:57:17.085Z,1002.20
2019-04-21T15:03:16.102Z,1002.04
2019-04-21T15:09:16.047Z,1002.04
2019-04-21T15:15:16.109Z,1002.07
2019-04-21T15:21:17.364Z,1002.01
2019-04-21T15:27:16.865Z,1001.95
2019-04-21T15:33:16.335Z,1001.97
2019-04-21T15:39:16.152Z,1001.91
2019-04-21T15:45:16.770Z,1001.76
2019-04-21T15:51:16.072Z,1001.78
2019-04-21T15:57:17.513Z,1001.68
2019-04-21T16:03:16.561Z,1001.66
2019-04-21T16:09:20.030Z,1001.60
2019-04-21T16:15:16.681Z,1001.52
2019-04-21T16:21:19.895Z,1001.54
2019-04-21T16:27:17.416Z,1001.50
2019-04-21T16:33:16.151Z,1001.30
2019-04-21T16:39:16.108Z,1001.31
2019-04-21T16:45:16.901Z,1001.22
2019-04-21T16:51:16.135Z,1001.17
2019-04-21T16:57:17.561Z,1001.09
2019-04-21T17:03:16.632Z,1001.16
2019-04-21T17:09:16.803Z,1001.07
2019-04-21T17:15:32.407Z,1000.98
2019-04-21T17:21:16.785Z,1001.06
2019-04-21T17:27:17.454Z,1001.08
2019-04-21T17:33:21.594Z,1001.01
2019-04-21T17:39:16.403Z,1000.97
2019-04-21T17:45:17.139Z,1000.93
2019-04-21T17:51:17.365Z,1000.94
2019-04-21T17:57:36.476Z,1000.96
2019-04-21T18:03:48.369Z,1000.91
2019-04-21T18:09:45.397Z,1000.97
2019-04-21T18:15:29.075Z,1000.91
2019-04-21T18:21:16.748Z,1000.86
2019-04-21T18:27:17.451Z,1000.91
2019-04-21T18:33:22.243Z,1000.87
2019-04-21T18:39:34.243Z,1000.94
2019-04-21T18:45:51.886Z,1000.94
2019-04-21T18:51:20.423Z,1000.90
2019-04-21T18:57:26.576Z,1000.89
2019-04-21T19:03:25.386Z,1000.95
2019-04-21T19:09:46.692Z,1000.88
2019-04-21T19:15:32.931Z,1000.97
2019-04-21T19:21:28.413Z,1000.93
2019-04-21T19:27:31.093Z,1000.97
2019-04-21T19:33:29.806Z,1000.98
2019-04-21T19:45:28.022Z,1000.84
2019-04-21T19:51:33.923Z,1000.82
2019-04-21T19:57:16.836Z,1000.77
2019-04-21T20:03:16.610Z,1000.78
2019-04-21T20:09:32.179Z,1000.74
2019-04-21T20:15:42.023Z,1000.71
2019-04-21T20:21:16.447Z,1000.71
2019-04-21T20:27:24.081Z,1000.64
2019-04-21T20:33:49.246Z,1000.62
2019-04-21T20:39:20.364Z,1000.60
2019-04-21T20:45:40.551Z,1000.62
2019-04-21T20:51:32.754Z,1000.60
2019-04-21T20:57:31.585Z,1000.49
2019-04-21T21:03:37.623Z,1000.45
2019-04-21T21:09:34.188Z,1000.40
2019-04-21T21:15:34.855Z,1000.43
2019-04-21T21:21:32.712Z,1000.47
2019-04-21T21:27:31.927Z,1000.35
2019-04-21T21:33:39.483Z,1000.35
2019-04-21T21:39:40.561Z,1000.33
2019-04-21T21:45:21.378Z,1000.31
2019-04-21T21:51:26.934Z,1000.34
2019-04-21T21:57:16.595Z,1000.35
2019-04-21T22:03:23.358Z,1000.37
2019-04-21T22:09:16.605Z,1000.25
2019-04-21T22:15:19.593Z,1000.25
2019-04-21T22:21:36.573Z,1000.28
2019-04-21T22:27:17.017Z,1000.29
2019-04-21T22:33:19.349Z,1000.24
2019-04-21T22:39:28.444Z,1000.34
2019-04-21T22:45:17.576Z,1000.22
2019-04-21T22:51:28.032Z,1000.18
2019-04-21T22:57:20.898Z,1000.16
2019-04-21T23:03:21.372Z,1000.19
2019-04-21T23:09:16.967Z,1000.07
2019-04-21T23:15:20.481Z,1000.09
2019-04-21T23:21:31.721Z,1000.15
2019-04-21T23:27:33.372Z,1000.07
2019-04-21T23:33:19.565Z,1000.03
2019-04-21T23:39:23.689Z,1000.03
2019-04-21T23:45:18.393Z,999.98
2019-04-21T23:51:30.128Z,999.89
2019-04-21T23:57:26.302Z,999.82
